Time;durP1;ratioP1;P1;durP2;ratioP2;P2;SDS_P1;SDS_P2;PMS_P1;PMS_P2;Temp;Humidity;BMP_temperature;BMP_pressure;BME280_temperature;BME280_humidity;BME280_pressure;Samples;Min_cycle;Max_cycle;Signal;HPM_P1;HPM_P2
2021/10/18 00:03:01;;;;;;;1.25;1.00;;;22.60;63.40;;;;;;38925893;22;20012;-38
2021/10/18 00:18:03;;;;;;;1.88;0.80;;;22.50;63.30;;;;;;38922709;22;20046;-44
2021/10/18 00:33:05;;;;;;;2.60;0.50;;;22.50;63.40;;;;;;38916095;22;20093;-44
2021/10/18 00:48:07;;;;;;;0.22;0.22;;;22.50;63.30;;;;;;38926450;22;20046;-44
2021/10/18 01:03:09;;;;;;;19.00;14.27;;;22.50;63.50;;;;;;38930711;22;20016;-39
2021/10/18 01:18:11;;;;;;;15.40;11.93;;;22.40;63.80;;;;;;38934779;22;20016;-47
2021/10/18 01:33:13;;;;;;;14.32;9.80;;;22.30;64.00;;;;;;38933632;22;20107;-49
2021/10/18 01:48:15;;;;;;;9.02;8.13;;;22.20;64.10;;;;;;38929303;22;20012;-46
2021/10/18 02:03:18;;;;;;;6.28;5.30;;;22.30;64.10;;;;;;38926025;23;20073;-47
2021/10/18 02:18:20;;;;;;;4.07;3.30;;;22.40;64.10;;;;;;38931166;22;20087;-47
2021/10/18 02:33:23;;;;;;;3.55;3.10;;;22.80;63.60;;;;;;38926513;22;20173;-45
2021/10/18 02:48:25;;;;;;;2.30;1.92;;;22.90;63.40;;;;;;38926096;22;20119;-47
2021/10/18 03:03:27;;;;;;;2.33;1.95;;;22.90;63.60;;;;;;38922965;22;20055;-46
2021/10/18 03:18:29;;;;;;;1.55;1.42;;;22.80;63.50;;;;;;38925213;22;20050;-50
2021/10/18 03:33:39;;;;;;;1.40;1.30;;;22.70;63.50;;;;;;38924691;22;20020;-46
2021/10/18 03:48:41;;;;;;;1.20;1.00;;;22.60;63.50;;;;;;38917795;22;20072;-47
2021/10/18 04:03:43;;;;;;;1.92;1.38;;;22.60;63.60;;;;;;38922265;22;20059;-42
2021/10/18 04:18:45;;;;;;;0.75;0.65;;;22.50;63.60;;;;;;38920982;22;20067;-45
2021/10/18 04:33:47;;;;;;;0.57;0.30;;;22.50;63.50;;;;;;38928797;22;20020;-45
2021/10/18 04:48:49;;;;;;;0.30;0.30;;;22.40;63.40;;;;;;38931484;22;20061;-38
2021/10/18 05:03:51;;;;;;;0.20;0.20;;;22.40;63.30;;;;;;38928822;22;20067;-45
2021/10/18 05:18:53;;;;;;;10.32;4.05;;;22.40;63.10;;;;;;38934213;22;20073;-48
2021/10/18 05:33:55;;;;;;;8.82;6.15;;;22.30;65.00;;;;;;38925988;22;20042;-42
2021/10/18 05:48:57;;;;;;;9.68;5.90;;;22.40;63.80;;;;;;38928285;23;20038;-45
2021/10/18 06:04:02;;;;;;;12.88;9.93;;;22.90;62.90;;;;;;38925784;22;20008;-51
2021/10/18 06:19:04;;;;;;;16.70;14.18;;;22.80;61.90;;;;;;38926130;22;20515;-45
2021/10/18 06:34:06;;;;;;;68.88;51.67;;;22.60;60.40;;;;;;38923845;22;20016;-47
2021/10/18 06:49:08;;;;;;;26.75;22.80;;;22.30;56.00;;;;;;38927897;22;20361;-49
2021/10/18 07:04:10;;;;;;;25.10;21.42;;;22.20;56.30;;;;;;38920729;22;20096;-46
2021/10/18 07:19:13;;;;;;;25.25;20.00;;;22.20;56.20;;;;;;38922695;22;20035;-46
2021/10/18 07:34:17;;;;;;;24.13;18.50;;;22.10;55.80;;;;;;38919355;22;20079;-41
2021/10/18 07:49:19;;;;;;;31.73;24.77;;;22.20;56.60;;;;;;38923761;23;20079;-45
2021/10/18 08:04:23;;;;;;;31.40;22.65;;;22.50;56.60;;;;;;38923793;22;20070;-43
2021/10/18 08:19:25;;;;;;;48.83;21.83;;;22.70;55.50;;;;;;38920402;23;20040;-48
2021/10/18 08:34:27;;;;;;;48.80;20.23;;;22.60;55.50;;;;;;38921003;22;20072;-48
2021/10/18 08:49:29;;;;;;;25.70;16.30;;;22.60;55.60;;;;;;38923593;22;20504;-41
2021/10/18 09:04:38;;;;;;;27.48;15.73;;;22.50;55.10;;;;;;38923050;22;20020;-45
2021/10/18 09:19:40;;;;;;;25.30;15.65;;;22.50;55.10;;;;;;38926863;22;20008;-45
2021/10/18 09:34:42;;;;;;;15.15;11.90;;;22.40;54.90;;;;;;38932990;22;20020;-42
2021/10/18 10:51:39;;;;;;;13.20;9.85;;;22.40;58.70;;;;;;38916820;23;20020;-37
2021/10/18 11:06:47;;;;;;;19.92;9.57;;;22.40;60.80;;;;;;38922555;22;20019;-47
2021/10/18 11:21:57;;;;;;;12.55;8.50;;;22.50;60.60;;;;;;38907527;22;20726;-48
2021/10/18 11:37:00;;;;;;;18.13;9.38;;;22.40;61.00;;;;;;38918827;22;20016;-51
2021/10/18 11:52:07;;;;;;;11.95;9.05;;;22.20;61.00;;;;;;38916889;22;20050;-51
2021/10/18 12:07:09;;;;;;;11.90;8.27;;;22.10;60.50;;;;;;38916652;22;20012;-48
2021/10/18 12:22:11;;;;;;;13.75;8.85;;;22.60;59.60;;;;;;38916279;22;20043;-48
2021/10/18 12:37:15;;;;;;;10.95;9.55;;;22.80;59.10;;;;;;38915239;22;20076;-50
2021/10/18 12:56:34;;;;;;;9.70;7.57;;;22.70;58.00;;;;;;31705163;22;1526083;-50
2021/10/18 13:11:42;;;;;;;10.80;9.05;;;22.50;58.50;;;;;;31732816;28;20063;-49
2021/10/18 13:26:44;;;;;;;12.48;10.15;;;22.40;57.60;;;;;;31726741;28;20082;-51
2021/10/18 13:41:46;;;;;;;18.35;11.43;;;22.30;57.30;;;;;;31727189;28;20117;-51
2021/10/18 13:56:48;;;;;;;12.73;9.23;;;22.30;56.50;;;;;;31704537;28;20056;-53
2021/10/18 14:11:50;;;;;;;11.80;8.93;;;22.40;57.60;;;;;;31641676;28;20052;-54
2021/10/18 14:26:53;;;;;;;13.32;10.48;;;22.80;57.30;;;;;;31640410;28;20100;-52
2021/10/18 14:41:55;;;;;;;11.88;9.15;;;22.70;56.20;;;;;;31638326;28;20098;-53
2021/10/18 14:57:00;;;;;;;12.65;10.98;;;22.50;56.80;;;;;;31636610;28;20060;-53
2021/10/18 15:12:03;;;;;;;16.63;11.15;;;22.40;56.00;;;;;;31633023;28;20052;-53
2021/10/18 15:27:05;;;;;;;28.02;11.73;;;22.30;55.90;;;;;;31632173;28;20060;-52
2021/10/18 15:42:07;;;;;;;22.55;12.20;;;22.30;56.70;;;;;;31626882;28;20060;-50
2021/10/18 15:57:10;;;;;;;64.82;23.10;;;22.50;58.10;;;;;;31710881;28;20048;-56
2021/10/18 16:12:12;;;;;;;44.25;20.52;;;22.90;60.30;;;;;;31724910;28;20047;-56
2021/10/18 16:27:14;;;;;;;40.95;20.50;;;22.90;60.60;;;;;;31746170;28;20040;-54
2021/10/18 16:42:18;;;;;;;31.40;19.15;;;22.80;59.80;;;;;;31749053;28;20036;-61
2021/10/18 16:57:21;;;;;;;31.17;18.13;;;22.70;59.20;;;;;;31690340;28;20048;-58
2021/10/18 17:12:23;;;;;;;28.60;16.85;;;22.60;58.20;;;;;;31750351;28;20048;-57
2021/10/18 17:27:25;;;;;;;25.65;14.88;;;22.60;58.60;;;;;;31740449;28;20044;-48
2021/10/18 17:42:27;;;;;;;26.67;14.13;;;22.50;60.00;;;;;;31734110;28;20040;-57
2021/10/18 17:57:29;;;;;;;22.10;14.40;;;22.50;60.20;;;;;;31634854;28;20048;-55
2021/10/18 18:12:32;;;;;;;17.05;11.57;;;22.60;60.30;;;;;;31758919;28;20040;-57
2021/10/18 18:27:35;;;;;;;18.75;11.98;;;22.60;60.90;;;;;;31743247;28;20040;-56
2021/10/18 18:42:37;;;;;;;20.85;10.68;;;22.60;60.70;;;;;;31759681;28;20059;-59
2021/10/18 18:57:40;;;;;;;13.80;9.32;;;22.60;60.90;;;;;;31757554;28;20055;-58
2021/10/18 19:12:43;;;;;;;14.70;9.35;;;22.60;61.30;;;;;;31755589;28;20102;-58
2021/10/18 19:27:45;;;;;;;12.60;8.98;;;22.50;61.60;;;;;;31753726;28;20094;-57
2021/10/18 19:42:48;;;;;;;9.55;7.95;;;22.50;62.10;;;;;;31680040;28;20044;-57
2021/10/18 19:57:50;;;;;;;11.20;7.53;;;22.50;62.30;;;;;;31623600;28;20052;-57
2021/10/18 20:12:52;;;;;;;10.02;7.07;;;22.50;62.40;;;;;;31004156;28;10000730;-57
2021/10/18 20:27:54;;;;;;;13.80;7.07;;;22.40;62.50;;;;;;31744664;28;20041;-58
2021/10/18 20:42:57;;;;;;;21.13;14.32;;;22.40;62.50;;;;;;31621535;28;20540;-57
2021/10/18 20:57:59;;;;;;;19.35;15.52;;;22.20;59.10;;;;;;31619418;28;20087;-55
2021/10/18 21:13:03;;;;;;;18.73;15.48;;;22.20;57.90;;;;;;31634359;28;20480;-53
2021/10/18 21:28:05;;;;;;;34.50;25.83;;;22.10;56.90;;;;;;31644573;28;20045;-51
2021/10/18 21:43:08;;;;;;;18.42;14.25;;;22.00;60.90;;;;;;31643524;28;20045;-57
2021/10/18 21:58:30;;;;;;;51.95;39.33;;;22.50;57.80;;;;;;31638139;28;20060;-59
2021/10/18 22:13:32;;;;;;;16.45;13.93;;;22.90;58.10;;;;;;31642159;28;20279;-52
2021/10/18 22:28:34;;;;;;;12.75;8.35;;;23.10;58.10;;;;;;31637815;28;20082;-57
2021/10/18 22:43:36;;;;;;;6.47;5.15;;;23.00;58.50;;;;;;31635674;28;20067;-57
2021/10/18 22:58:38;;;;;;;48.17;38.33;;;23.00;58.50;;;;;;31637030;28;20064;-55
2021/10/18 23:13:40;;;;;;;13.88;11.90;;;22.80;58.20;;;;;;31637027;28;20068;-56
2021/10/18 23:28:43;;;;;;;10.30;8.88;;;22.90;58.80;;;;;;31635685;28;20052;-57
2021/10/18 23:43:45;;;;;;;7.22;5.60;;;22.80;59.00;;;;;;31634221;28;20060;-57
2021/10/18 23:58:47;;;;;;;4.15;3.10;;;22.70;59.30;;;;;;31632951;28;20080;-57
